Date,TemperatureHighF,TemperatureAvgF,TemperatureLowF,DewpointHighF,DewpointAvgF,DewpointLowF,HumidityHigh,HumidityAvg,HumidityLow,PressureMaxIn,PressureMinIn,WindSpeedMaxMPH,WindSpeedAvgMPH,GustSpeedMaxMPH,PrecipitationSumIn
2013-1-1,27,21,11,20,14,7,86,74,59,30.19,30.06,12,3,16,0.00
2013-1-2,25,21,16,20,16,11,84,80,77,30.24,30.12,11,3,15,0.00
2013-1-3,28,22,12,24,17,6,88,81,72,30.23,30.13,11,3,13,0.00
2013-1-4,27,24,19,23,19,14,85,81,71,30.24,30.11,19,7,23,0.00
2013-1-5,35,28,22,29,24,19,90,82,70,30.31,30.06,9,2,14,0.01
2013-1-6,35,32,30,31,28,26,90,85,77,30.31,29.94,12,4,17,0.00
2013-1-7,34,30,24,26,24,20,89,79,69,30.41,30.17,14,2,16,0.00
2013-1-8,39,29,18,29,24,16,92,81,65,30.28,30.18,6,1,10,0.01
2013-1-9,45,38,29,34,29,24,84,71,49,30.47,30.07,23,6,30,0.00
2013-1-10,39,31,20,32,26,17,93,83,68,30.58,30.15,13,3,15,0.18
2013-1-11,55,45,34,50,42,32,95,89,77,30.16,29.79,18,3,22,0.39
2013-1-12,59,51,45,50,46,43,93,84,67,29.95,29.79,10,2,14,0.10
2013-1-13,46,36,28,43,33,24,93,91,84,30.08,29.75,19,4,21,0.63
2013-1-14,28,22,14,24,17,12,89,83,78,30.48,30.08,16,4,21,0.00
2013-1-15,29,20,12,22,16,9,92,83,70,30.48,30.19,6,0,7,0.01
2013-1-16,35,27,18,28,20,16,91,77,51,30.19,29.87,15,4,20,0.00
2013-1-17,36,29,20,29,22,10,89,75,59,30.35,30.02,19,6,24,0.01
2013-1-18,36,27,17,25,19,14,87,71,60,30.45,30.02,14,3,21,0.00
2013-1-19,47,41,36,36,31,25,76,68,60,30.02,29.64,16,5,26,0.00
2013-1-20,42,21,16,35,13,8,79,70,51,30.22,29.63,27,9,44,0.00
2013-1-21,17,13,6,13,7,0,84,77,56,30.18,30.01,18,6,24,0.00
2013-1-22,10,4,-2,4,-2,-8,82,76,66,30.37,30.18,14,4,18,0.00
2013-1-23,16,10,0,11,5,-4,86,79,67,30.37,30.12,9,2,15,0.00
2013-1-24,18,11,5,9,3,-1,85,71,44,30.66,30.18,12,2,13,0.00
2013-1-25,21,18,13,17,12,3,88,80,65,30.54,30.05,7,2,11,0.00
2013-1-26,27,20,9,19,15,6,89,79,58,30.49,30.09,12,3,17,0.01
2013-1-27,30,22,11,28,18,8,90,81,67,30.51,30.14,10,2,17,0.00
2013-1-28,48,40,31,46,38,28,95,94,89,30.15,29.90,13,3,17,0.33
2013-1-29,57,49,37,54,47,35,95,94,89,30.02,29.43,11,3,20,0.08
2013-1-30,59,48,29,56,45,23,95,90,78,29.43,29.13,21,5,31,0.03
2013-1-31,29,20,14,24,15,10,89,82,70,29.95,29.33,21,9,29,0.03
2013-2-1,15,11,6,11,6,2,88,81,71,30.33,29.95,13,5,19,0.00
2013-2-2,23,16,1,19,12,-2,88,84,80,30.28,29.99,10,2,14,0.00
2013-2-3,21,12,-2,16,8,-6,88,84,77,30.08,29.93,15,3,19,0.00
2013-2-4,23,20,16,19,16,13,90,87,83,30.08,29.90,5,1,7,0.00
2013-2-5,28,20,3,25,17,0,92,85,75,30.02,29.85,13,2,17,0.06
2013-2-6,31,22,4,23,15,1,90,75,58,30.32,30.02,15,2,15,0.04
2013-2-7,40,30,22,30,24,17,89,77,67,30.30,29.84,10,3,15,0.03
2013-2-8,31,26,13,28,22,10,92,83,70,30.39,29.81,14,4,24,0.01
2013-2-9,30,19,5,21,14,2,91,80,64,30.49,30.30,5,1,10,0.06
2013-2-10,41,31,22,39,26,18,93,81,71,30.30,29.70,13,4,16,0.06
2013-2-11,44,36,30,42,30,24,94,80,72,29.92,29.58,26,9,40,0.14
2013-2-12,31,29,26,25,24,21,82,79,76,30.09,29.92,15,5,24,0.00
2013-2-13,40,30,25,29,24,21,90,79,62,29.96,29.76,7,2,13,0.00
2013-2-14,39,34,28,34,30,26,90,84,75,29.90,29.70,17,4,25,0.00
2013-2-15,32,27,20,28,20,14,87,74,59,30.17,29.89,15,5,19,0.00
2013-2-16,24,19,14,18,14,10,89,80,63,30.14,30.04,15,3,19,0.01
2013-2-17,25,17,12,12,10,9,89,75,53,30.26,30.12,10,3,21,0.00
2013-2-18,47,33,18,39,25,12,85,73,60,30.23,29.59,13,3,18,0.11
2013-2-19,43,25,16,40,21,11,90,84,74,30.00,29.45,22,8,30,0.30
2013-2-20,21,18,16,16,13,10,86,79,71,30.31,30.00,14,7,22,0.00
2013-2-21,26,22,20,19,17,15,84,79,73,30.41,30.23,16,4,19,0.00
2013-2-22,33,27,20,31,24,16,93,89,84,30.24,29.91,13,4,21,0.00
2013-2-23,32,28,22,28,22,17,85,77,67,29.96,29.91,11,4,18,0.01
2013-2-24,33,28,21,27,23,17,86,81,76,30.19,29.94,10,3,15,0.01
2013-2-25,40,30,14,28,22,11,92,75,57,30.26,30.09,7,1,10,0.01
2013-2-26,34,31,27,31,27,21,94,84,71,30.12,29.48,16,3,21,0.36
2013-2-27,35,33,32,33,31,31,94,92,89,29.59,29.46,8,1,11,0.01
2013-2-28,36,33,30,32,30,26,94,87,80,29.98,29.57,14,4,20,0.28
2013-3-1,30,26,24,26,21,19,87,80,73,30.15,29.98,11,3,13,0.00
2013-3-2,26,23,18,20,18,14,84,81,77,30.13,30.09,11,3,13,0.00
2013-3-3,30,22,14,16,15,11,87,75,54,30.11,30.05,13,4,16,0.00
2013-3-4,35,20,6,20,13,2,90,75,49,30.21,30.11,5,1,7,0.09
2013-3-5,32,26,16,26,20,13,89,81,72,30.16,29.83,14,4,20,0.01
2013-3-6,36,31,26,28,26,22,86,81,73,30.25,29.86,11,3,16,0.01
2013-3-7,38,32,28,29,25,22,88,75,56,30.42,30.23,13,3,16,0.00
2013-3-8,42,30,16,27,21,13,91,72,47,30.53,30.42,6,1,8,0.00
2013-3-9,43,34,24,34,28,20,92,79,66,30.43,30.04,10,2,14,0.00
2013-3-10,58,48,37,45,38,32,83,69,57,30.04,29.79,7,2,13,0.02
2013-3-11,52,46,35,48,42,31,93,84,70,29.79,29.48,19,4,23,0.40
2013-3-12,35,32,30,31,28,25,90,84,76,29.94,29.70,14,5,20,0.02
2013-3-13,30,27,23,27,21,16,89,78,66,30.26,29.91,20,8,22,0.00
2013-3-14,40,30,20,26,20,16,83,69,50,30.32,30.13,12,4,17,0.00
2013-3-15,42,35,31,36,31,24,93,83,71,30.13,29.84,10,4,17,0.05
2013-3-16,34,30,28,32,27,23,93,89,80,30.08,29.73,10,3,14,0.05
2013-3-17,32,27,23,25,19,16,85,73,59,30.28,30.07,14,4,18,0.06
2013-3-18,34,30,24,32,26,18,94,88,79,30.18,29.59,14,6,21,0.01
2013-3-19,34,26,21,31,19,15,89,75,66,30.00,29.67,23,8,28,0.01
2013-3-20,27,23,16,19,15,10,83,71,59,30.00,29.94,15,6,23,0.00
2013-3-21,30,22,15,23,18,11,88,82,73,30.01,29.94,15,6,20,0.00
2013-3-22,39,30,24,27,22,18,82,73,55,30.06,29.99,12,5,17,0.01
2013-3-23,37,28,19,26,22,16,91,77,58,30.14,30.05,9,2,12,0.01
2013-3-24,36,30,22,27,23,19,89,77,63,30.06,29.65,21,4,23,0.00
2013-3-25,37,32,29,30,26,24,85,78,69,29.96,29.58,17,5,21,0.00
2013-3-26,40,34,30,31,28,26,88,79,61,30.17,29.96,13,5,17,0.00
2013-3-27,44,36,29,30,26,22,87,68,48,30.27,30.17,23,7,26,0.00
2013-3-28,51,38,29,29,25,22,80,61,38,30.31,30.25,11,4,17,0.00
2013-3-29,51,36,22,30,23,19,91,63,32,30.32,30.22,12,2,15,0.00
2013-3-30,55,39,22,34,25,19,90,61,32,30.26,29.94,10,1,16,0.00
2013-3-31,58,46,37,43,36,30,90,68,37,29.94,29.64,16,4,25,0.02
2013-4-1,38,31,24,30,18,13,83,59,40,30.14,29.74,20,8,27,0.00
2013-4-2,40,30,21,20,16,11,85,57,35,30.30,30.14,18,5,26,0.00
2013-4-3,44,31,19,23,16,13,84,57,29,30.46,30.29,14,2,18,0.00
2013-4-4,56,40,28,29,20,16,74,48,24,30.39,29.98,11,2,15,0.00
2013-4-5,48,40,31,31,23,14,82,55,27,30.21,29.96,12,3,17,0.00
2013-4-6,57,44,33,32,25,20,74,50,30,30.25,29.77,18,5,21,0.00
2013-4-7,58,51,37,46,39,32,83,64,45,30.00,29.63,21,6,26,0.00
2013-4-8,68,47,34,57,41,31,92,80,61,30.02,29.71,18,4,27,0.27
2013-4-9,61,49,40,50,44,38,94,83,69,30.07,29.86,10,2,14,0.00
2013-4-10,48,43,40,44,41,38,94,92,87,29.97,29.84,12,4,25,0.49
2013-4-11,40,38,36,38,36,34,95,93,92,29.98,29.63,21,7,24,0.13
2013-4-12,40,38,36,37,35,32,94,88,77,29.81,29.57,13,4,18,0.01
2013-4-13,39,37,34,36,31,28,88,77,64,30.01,29.81,17,6,31,0.02
2013-4-14,50,40,32,39,33,28,91,77,62,30.12,29.92,11,3,19,0.01
2013-4-15,66,54,38,55,47,35,89,77,63,29.96,29.87,13,2,17,0.01
2013-4-16,60,52,45,54,42,32,93,72,41,30.23,29.86,13,4,18,0.37
2013-4-17,54,47,41,42,38,32,91,71,57,30.31,30.01,14,5,21,0.94
2013-4-18,74,57,43,65,53,40,93,88,71,30.01,29.56,17,4,23,0.30
2013-4-19,57,42,35,55,37,30,94,82,70,29.79,29.37,22,8,35,1.19
2013-4-20,40,34,26,31,24,19,90,69,49,30.46,29.79,15,6,23,0.03
2013-4-21,47,35,22,33,26,19,93,71,52,30.63,30.46,13,3,15,0.00
2013-4-22,62,47,31,36,32,28,93,60,29,30.48,30.18,12,3,14,0.00
2013-4-23,68,54,40,53,44,34,93,72,46,30.18,29.80,18,2,21,0.64
2013-4-24,53,39,34,51,34,26,93,84,60,30.17,29.75,15,5,20,1.00
2013-4-25,50,40,33,40,32,28,89,74,47,30.38,30.14,17,4,23,0.08
2013-4-26,59,45,29,41,33,27,94,67,42,30.48,30.35,11,2,16,0.00
2013-4-27,68,54,36,41,37,33,91,56,30,30.37,30.09,9,2,15,0.00
2013-4-28,54,52,49,52,47,36,94,84,55,30.09,29.82,8,1,8,0.43
2013-4-29,70,60,51,56,53,50,95,80,55,29.94,29.84,10,2,13,0.01
2013-4-30,74,62,52,59,54,50,91,77,57,30.04,29.91,16,2,23,0.00
2013-5-1,82,68,51,59,55,48,94,66,42,30.20,30.04,9,2,13,0.00
2013-5-2,78,65,51,59,52,46,91,65,40,30.20,30.09,13,3,15,0.00
2013-5-3,78,65,55,59,49,40,80,58,34,30.10,29.99,13,3,19,0.00
2013-5-4,68,62,54,50,43,35,76,53,31,30.07,30.00,15,4,19,0.00
2013-5-5,71,60,49,48,42,30,78,55,22,30.07,30.00,16,3,17,0.00
2013-5-6,74,59,43,52,45,40,92,63,38,30.04,29.96,10,2,14,0.00
2013-5-7,74,62,45,55,49,42,90,65,43,30.04,29.97,13,2,16,0.00
2013-5-8,78,63,47,55,50,45,94,66,35,30.01,29.93,10,1,14,0.00
2013-5-9,79,66,49,57,50,43,93,63,29,29.97,29.88,9,2,14,0.00
2013-5-10,71,58,42,60,53,40,93,84,65,29.90,29.74,13,4,20,0.11
2013-5-11,59,46,38,47,41,33,92,82,60,29.94,29.78,15,4,28,0.02
2013-5-12,47,40,31,34,30,26,85,69,53,30.12,29.92,19,6,25,0.00
2013-5-13,56,42,28,34,27,22,91,58,29,30.21,30.12,14,2,18,0.00
2013-5-14,79,61,40,57,44,29,80,56,42,30.12,29.71,15,2,18,0.00
2013-5-15,81,73,61,60,52,42,80,50,30,29.78,29.60,17,5,23,0.00
2013-5-16,82,69,47,56,46,41,86,48,25,29.97,29.77,12,2,16,0.00
2013-5-17,76,63,50,51,45,40,73,53,38,30.12,29.98,11,4,15,0.00
2013-5-18,79,65,50,59,49,40,79,57,45,30.12,30.00,7,2,11,0.00
2013-5-19,85,70,51,65,57,45,87,64,44,30.03,29.86,7,1,10,0.00
2013-5-20,88,75,62,70,65,59,92,72,48,29.89,29.76,15,2,18,0.00
2013-5-21,83,74,64,66,63,60,92,71,50,29.79,29.69,10,2,19,0.07
2013-5-22,79,68,60,64,61,57,93,81,52,29.73,29.62,24,2,30,0.29
2013-5-23,61,54,45,58,51,42,94,90,84,30.16,29.69,13,3,17,0.01
2013-5-24,59,47,37,42,38,34,91,73,47,30.36,30.17,13,3,20,0.02
2013-5-25,64,51,36,44,39,34,94,67,35,30.41,30.28,7,1,10,0.00
2013-5-26,68,54,36,47,37,30,94,59,27,30.36,30.21,7,1,10,0.00
2013-5-27,54,51,50,51,45,39,93,81,58,30.25,29.97,10,2,15,0.01
2013-5-28,76,65,54,70,61,51,95,87,76,29.98,29.81,9,1,12,0.13
2013-5-29,81,73,67,67,64,61,85,74,58,29.96,29.80,18,4,19,0.01
2013-5-31,74,71,68,67,66,65,90,84,77,29.86,28.68,7,1,12,0.07
2013-6-1,76,68,63,66,63,60,93,84,68,29.74,28.58,10,2,15,0.26
2013-6-2,68,62,53,63,56,46,85,79,72,29.97,29.65,16,5,18,0.00
2013-6-3,67,55,40,48,42,37,93,65,40,30.10,29.97,8,2,14,0.00
2013-6-4,72,58,42,52,46,40,95,68,41,30.19,30.10,9,1,11,0.00
2013-6-5,74,62,50,50,46,39,81,57,35,30.15,29.96,8,2,13,0.00
2013-6-6,72,61,52,57,50,44,83,68,54,29.98,29.83,9,2,12,0.00
2013-6-7,63,55,47,53,50,44,93,83,69,29.92,29.86,8,1,12,0.00
2013-6-8,74,60,43,59,50,41,95,74,44,30.05,29.92,7,1,10,0.00
2013-6-9,76,67,56,64,58,52,86,74,62,30.08,29.91,15,3,16,0.02
2013-6-10,74,66,62,66,63,58,94,89,74,29.91,29.71,10,2,11,0.49
2013-6-11,80,70,63,68,63,59,93,80,61,29.90,29.77,11,3,15,0.02
2013-6-12,79,70,60,70,64,58,95,84,70,29.92,29.61,9,1,11,0.20
2013-6-13,76,68,60,65,59,53,93,74,47,29.92,29.50,16,3,19,0.32
2013-6-14,76,66,55,60,56,52,91,72,47,30.08,29.92,8,1,15,0.00
2013-6-15,77,65,52,63,58,50,95,81,58,30.08,29.92,8,1,12,0.03
2013-6-16,80,70,59,67,62,55,93,77,48,29.92,29.79,14,4,20,0.37
2013-6-17,84,71,57,68,59,55,94,70,38,29.92,29.83,16,2,28,0.16
2013-6-18,72,64,57,60,56,44,93,74,52,30.06,29.85,9,2,11,0.00
2013-6-19,75,61,43,57,49,40,94,66,41,30.16,30.05,8,1,9,0.00
2013-6-20,83,68,50,64,54,47,89,65,39,30.20,30.12,6,1,10,0.00
2013-6-21,85,74,61,65,60,56,87,64,44,30.18,30.01,9,1,13,0.00
2013-6-22,84,75,66,74,67,58,90,77,69,30.07,29.96,12,2,14,0.00
2013-6-23,88,77,66,71,67,63,91,72,51,30.06,29.95,15,2,15,0.00
2013-6-24,87,76,65,71,67,62,92,75,56,30.04,29.88,13,2,14,0.45
2013-6-25,84,72,65,75,67,63,93,85,69,29.99,29.78,9,2,31,1.09
2013-6-26,80,70,64,71,66,62,94,86,69,29.91,29.72,9,1,16,1.01
2013-6-27,83,71,65,72,67,62,95,86,64,29.75,29.63,12,2,20,0.06
2013-6-28,78,68,61,67,63,59,94,87,64,29.63,29.51,13,2,20,0.55
2013-6-29,73,65,59,66,62,57,95,88,73,29.72,29.54,8,1,14,0.42
2013-6-30,78,68,60,64,60,57,93,78,50,29.93,29.71,9,1,16,0.01
2013-7-1,69,63,57,60,54,49,88,73,61,30.05,29.92,13,2,20,0.05
2013-7-2,72,64,57,65,59,52,88,83,77,30.05,30.00,8,2,11,0.01
2013-7-3,81,70,63,68,64,61,94,82,58,30.09,30.01,7,1,10,0.00
2013-7-4,78,70,62,65,62,56,95,78,48,30.12,30.05,7,1,9,0.00
2013-7-5,82,73,65,69,66,61,93,79,57,30.10,30.03,7,0,8,0.00
2013-7-6,81,73,66,71,67,63,95,84,67,30.09,29.97,6,1,9,0.00
2013-7-7,77,70,66,71,66,64,93,88,77,30.03,29.96,7,1,10,0.16
2013-7-8,82,73,66,74,68,64,95,85,73,30.03,29.96,10,2,17,0.00
2013-7-9,85,73,68,76,70,66,95,89,72,29.98,29.88,9,2,16,0.79
2013-7-29,69,61,52,59,55,50,92,80,66,30.17,29.98,7,2,13,0.01
2013-7-30,78,63,46,65,57,45,95,80,55,30.23,30.10,3,0,7,0.00
2013-7-31,73,68,64,67,64,61,94,88,78,30.10,29.88,3,1,7,0.19
2013-8-1,76,68,55,65,60,52,94,77,53,29.92,29.87,8,3,13,0.00
2013-8-2,74,64,54,67,60,51,93,88,78,29.94,29.83,5,1,13,0.28
2013-8-3,76,69,59,64,59,55,95,72,51,30.03,29.90,6,2,14,0.01
2013-8-4,72,64,53,60,55,51,93,75,52,30.15,30.03,7,2,10,0.00
2013-8-5,72,62,49,61,55,47,95,80,57,30.11,29.94,2,0,5,0.00
2013-8-6,78,69,62,69,64,59,93,84,72,29.95,29.86,4,1,8,0.03
2013-8-7,82,71,64,73,68,62,95,89,73,29.92,29.80,4,0,8,0.51
2013-8-8,76,69,64,69,64,58,95,84,71,29.98,29.88,3,1,7,0.00
2013-8-9,78,68,59,65,60,54,94,76,52,30.00,29.92,6,1,7,0.00
2013-8-10,78,68,59,65,61,57,95,80,56,30.10,30.00,3,0,5,0.00
2013-8-11,77,67,54,64,59,53,95,78,55,30.10,30.02,6,1,9,0.00
2013-8-12,77,66,61,70,63,58,95,90,78,30.05,29.81,8,0,14,1.38
2013-8-13,66,60,53,64,53,48,95,79,58,30.06,29.83,8,3,12,0.01
2013-8-14,68,56,48,56,49,44,93,77,51,30.18,30.06,5,2,11,0.00
2013-8-15,73,58,44,59,51,43,95,77,49,30.18,30.10,5,1,12,0.00
2013-8-16,78,63,50,62,54,49,95,77,47,30.20,30.13,5,0,9,0.00
2013-8-17,76,63,48,62,55,47,95,79,53,30.26,30.19,8,1,11,0.02
2013-8-18,80,65,52,65,58,50,95,79,51,30.22,30.10,5,0,8,0.00
2013-8-19,81,67,55,67,60,53,95,78,54,30.12,30.03,8,1,11,0.00
2013-8-20,83,70,57,70,63,55,96,81,58,30.14,30.06,6,1,11,0.00
2013-8-21,84,72,62,72,66,60,94,82,64,30.12,29.98,10,1,11,0.07
2013-8-22,78,70,64,70,66,62,95,87,73,30.04,29.95,9,2,16,0.27
2013-8-23,79,69,55,66,59,50,95,74,37,30.18,30.04,9,1,11,0.01
2013-8-24,80,66,51,65,57,50,95,75,45,30.31,30.18,6,0,8,0.00
2013-8-25,84,70,56,68,61,53,93,76,53,30.28,30.15,11,1,13,0.00
2013-8-26,84,76,68,73,67,61,83,75,67,30.17,29.96,12,3,15,0.00
2013-8-27,86,78,71,78,72,68,93,83,70,29.99,29.81,9,2,11,0.19
2013-8-28,80,75,68,73,71,66,93,87,77,29.99,29.77,8,2,17,2.29
2013-8-29,85,72,61,73,67,59,96,86,65,30.06,29.98,3,0,7,0.01
2013-8-30,86,74,61,74,68,59,96,82,61,29.99,29.72,10,1,16,0.54
2013-8-31,81,73,68,71,68,66,94,85,65,29.82,29.71,6,0,14,0.01
2013-9-1,83,73,68,73,68,65,92,85,71,29.81,29.70,5,1,8,0.00
2013-9-2,74,68,58,69,62,52,95,80,64,29.92,29.72,12,4,18,0.00
2013-9-3,72,62,54,60,54,50,93,77,58,30.03,29.91,12,3,18,0.00
2013-9-4,78,64,50,63,57,49,95,79,56,30.11,30.03,11,2,15,0.00
2013-9-5,70,61,50,59,51,43,92,71,42,30.25,30.09,8,1,10,0.00
2013-9-6,76,60,46,60,52,44,95,77,47,30.28,30.07,8,0,10,0.00
2013-9-7,78,66,56,69,61,50,94,83,67,30.08,29.90,13,1,13,0.05
2013-9-8,74,67,58,65,62,54,94,83,68,30.05,29.93,8,2,15,0.00
2013-9-9,82,66,55,73,62,52,95,87,71,30.05,29.88,5,1,9,2.91
2013-9-10,91,79,71,74,70,65,88,75,49,29.99,29.89,9,2,15,0.00
2013-9-11,89,76,67,75,69,65,94,79,57,30.01,29.89,16,2,26,0.30
2013-9-12,76,68,56,66,61,50,95,80,50,29.97,29.84,12,2,20,0.00
2013-9-13,58,52,41,50,45,39,92,78,63,30.14,29.97,11,3,15,0.00
2013-9-14,67,51,37,53,43,35,95,77,45,30.22,30.10,8,1,10,0.00
2013-9-15,65,54,43,56,49,41,94,85,63,30.13,30.05,6,0,10,0.18
2013-9-16,61,54,46,53,50,43,94,86,65,30.36,30.13,10,1,15,0.01
2013-9-17,66,52,37,54,46,35,95,82,61,30.40,30.22,10,1,11,0.00
2013-9-18,76,60,47,60,53,45,95,80,50,30.22,30.02,5,0,10,0.00
2013-9-19,77,66,55,69,62,53,95,88,74,30.04,29.89,5,1,10,0.00
2013-9-20,77,70,65,70,66,63,94,88,75,29.90,29.72,10,2,14,0.18
2013-9-21,66,60,51,63,53,47,93,81,55,29.88,29.68,13,4,18,0.00
2013-9-22,56,51,40,49,44,38,92,77,65,30.08,29.88,11,2,13,0.00
2013-9-23,61,48,37,49,43,35,95,84,61,30.19,30.08,8,1,10,0.00
2013-9-24,65,50,36,52,44,35,95,82,60,30.16,30.00,9,1,13,0.00
2013-9-25,68,52,41,57,48,39,95,86,64,30.02,29.96,6,0,10,0.00
2013-9-26,75,55,39,57,47,38,95,78,42,30.14,30.00,7,1,11,0.01
2013-9-27,74,57,42,60,51,40,95,81,55,30.23,30.14,13,1,13,0.00
2013-9-28,78,61,48,60,53,46,95,77,43,30.18,30.00,8,1,10,0.00
2013-9-29,62,59,52,60,56,50,95,89,79,30.01,29.95,6,1,9,0.10
2013-9-30,70,57,46,58,52,45,96,86,60,30.03,29.92,8,1,10,0.01
2013-10-1,69,61,49,62,57,47,95,89,78,30.01,29.94,8,1,12,0.00
2013-10-2,79,66,54,62,57,50,94,75,42,30.08,29.96,9,1,11,0.01
2013-10-3,75,63,53,68,60,51,95,89,78,30.04,29.92,8,1,16,0.00
2013-10-4,78,69,64,70,65,61,93,87,74,30.01,29.94,8,1,12,0.31
2013-10-5,73,68,64,68,65,62,95,91,82,30.01,29.83,7,1,10,0.13
2013-10-6,69,62,52,67,59,51,94,91,84,29.83,29.64,10,2,15,0.40
2013-10-7,58,49,41,51,44,39,94,85,64,30.14,29.70,14,3,22,0.00
2013-10-8,68,52,39,52,44,38,96,78,49,30.30,30.14,6,1,10,0.01
2013-10-9,69,52,39,54,44,37,95,77,41,30.31,30.22,9,1,11,0.00
2013-10-10,70,53,39,53,44,37,95,76,38,30.23,30.13,6,0,10,0.01
2013-10-11,73,53,37,56,46,35,95,79,46,30.16,30.06,4,0,9,0.00
2013-10-12,77,62,50,61,54,48,95,77,42,30.09,30.01,8,1,12,0.00
2013-10-13,65,57,42,59,47,40,91,72,44,30.36,30.09,12,3,15,0.00
2013-10-14,63,50,41,49,43,39,95,79,52,30.42,30.26,9,1,11,0.00
2013-10-15,62,52,38,60,49,37,95,90,83,30.26,29.85,8,1,12,0.08
2013-10-16,62,53,48,59,48,44,92,84,76,29.92,29.82,15,3,16,0.01
2013-10-17,50,48,42,47,45,40,95,90,83,29.91,29.78,12,2,19,0.14
2013-10-18,60,48,38,47,42,36,94,80,52,29.94,29.87,12,2,18,0.03
2013-10-19,48,43,37,42,39,34,92,85,68,29.93,29.78,12,2,16,0.14
2013-10-20,58,48,37,44,40,35,91,74,51,29.93,29.85,10,2,17,0.00
2013-10-21,54,49,39,47,42,31,88,79,67,29.88,29.81,16,3,18,0.02
2013-10-22,47,39,33,35,31,28,89,73,58,29.95,29.88,17,4,19,0.00
2013-10-23,45,36,31,35,32,28,94,86,58,29.99,29.85,12,3,15,0.08
2013-10-24,43,36,32,35,32,30,92,84,63,30.23,29.97,10,3,15,0.04
2013-10-25,44,38,32,36,32,28,93,80,60,30.37,30.14,11,3,15,0.00
2013-10-26,47,43,36,40,33,29,83,67,60,30.14,29.82,17,4,20,0.02
2013-10-27,52,41,32,37,33,30,92,75,45,30.09,30.01,10,1,15,0.00
2013-10-28,53,42,31,42,36,28,92,77,65,30.40,30.06,8,1,13,0.00
2013-10-29,52,42,33,42,36,30,91,80,64,30.45,30.25,7,1,10,0.00
2013-10-30,62,49,33,54,43,32,95,82,50,30.25,29.94,8,1,14,0.46
2013-10-31,62,59,56,60,57,54,95,92,90,29.95,29.16,12,3,20,1.04
2013-11-1,59,47,44,56,43,40,92,87,80,29.68,29.18,20,5,27,0.07
2013-11-2,47,44,38,43,40,35,93,88,74,30.10,29.67,10,3,15,0.06
2013-11-3,46,38,28,36,32,27,94,82,62,30.44,30.10,9,2,11,0.00
2013-11-4,49,40,32,38,31,26,90,72,41,30.46,30.29,10,3,15,0.00
2013-11-5,53,49,43,48,44,38,89,82,78,30.37,30.16,9,1,9,0.00
2013-11-6,56,51,41,51,46,37,92,84,68,30.16,29.80,15,4,22,0.17
2013-11-7,45,39,32,38,32,28,90,78,53,30.17,30.00,18,6,23,0.03
2013-11-8,44,36,32,33,30,28,92,80,56,30.32,30.16,12,2,12,0.01
2013-11-9,56,47,38,43,37,32,79,69,60,30.18,29.84,18,6,27,0.00
2013-11-10,47,41,32,38,32,28,87,70,56,30.29,29.94,16,6,28,0.00
2013-11-11,44,36,26,38,31,21,92,82,69,30.36,30.06,14,3,18,0.15
2013-11-12,33,26,19,24,20,16,87,77,59,30.59,30.35,15,5,18,0.03
2013-11-13,37,28,17,24,19,14,91,69,41,30.59,30.23,15,3,22,0.01
2013-11-14,51,39,31,29,23,19,67,54,35,30.23,30.02,13,4,19,0.00
2013-11-15,51,43,36,32,29,24,71,57,45,30.07,30.00,13,2,15,0.00
2013-11-16,56,48,38,53,43,31,91,84,70,30.08,29.78,12,3,18,0.03
2013-11-17,61,58,56,58,56,53,92,91,82,29.78,29.25,22,5,34,0.73
2013-11-19,41,32,26,28,24,23,87,73,49,30.41,30.34,4,0,9,0.00
2013-11-20,42,34,23,32,26,20,91,75,53,30.44,30.24,15,3,16,0.00
2013-11-21,47,42,38,42,38,32,94,86,76,30.29,30.18,8,1,13,0.39
2013-11-22,45,39,27,43,36,24,94,88,77,30.39,30.14,19,4,21,0.03
2013-11-23,29,24,15,25,18,10,89,78,56,30.58,30.31,19,7,26,0.00
2013-11-24,23,18,12,17,12,7,87,78,61,30.67,30.48,15,3,18,0.00
2013-11-25,30,24,18,24,17,10,85,73,58,30.48,30.14,11,3,20,0.00
2013-11-26,33,30,26,28,26,22,89,86,82,30.16,29.97,12,3,18,0.00
2013-11-27,27,23,16,22,15,11,85,74,58,30.25,29.97,18,6,24,0.00
2013-11-28,27,23,15,20,17,11,88,77,65,30.46,30.25,6,1,11,0.00
2013-11-29,34,26,16,24,20,14,92,77,58,30.68,30.46,6,1,12,0.00
2013-11-30,46,34,27,31,26,21,83,73,56,30.56,30.12,9,2,15,0.00
2013-12-1,44,35,25,36,30,23,92,79,68,30.12,30.00,10,2,13,0.00
2013-12-2,39,32,27,30,27,24,93,82,64,30.01,29.89,6,1,9,0.00
2013-12-3,39,35,32,37,32,25,92,88,74,29.91,29.84,11,3,11,0.08
2013-12-4,57,46,38,54,44,36,94,93,90,29.89,29.62,9,2,14,0.01
2013-12-5,58,39,29,54,34,23,90,81,74,30.16,29.62,19,6,24,0.00
2013-12-6,29,25,21,23,19,14,80,77,73,30.44,30.14,10,4,14,0.00
2013-12-7,23,19,12,16,13,8,87,78,65,30.66,30.44,13,3,18,0.00
2013-12-8,27,19,10,25,15,7,92,85,76,30.63,30.02,11,3,16,0.00
2013-12-9,27,24,17,24,19,12,91,84,75,30.15,29.94,17,6,23,0.00
2013-12-10,21,16,7,14,9,2,86,75,54,30.25,30.01,19,5,25,0.00
2013-12-11,22,17,8,18,12,5,87,82,74,30.50,30.25,13,4,20,0.00
2013-12-12,19,12,2,14,5,-3,90,74,49,30.50,30.26,16,4,22,0.00
2013-12-13,29,23,17,22,17,12,84,79,72,30.29,30.22,10,3,15,0.01
2013-12-14,24,20,19,21,17,16,89,88,84,30.25,29.88,11,4,17,0.00
2013-12-15,23,18,12,21,15,9,90,88,85,30.09,29.88,14,4,21,0.00
2013-12-16,21,11,-5,16,8,-8,89,85,78,30.23,30.05,5,1,9,0.05
2013-12-17,26,21,13,23,18,10,92,88,83,30.06,29.94,12,3,17,0.00
2013-12-18,28,25,21,24,19,15,91,80,69,30.18,29.93,9,3,17,0.00
2013-12-19,42,36,27,36,31,19,92,81,70,30.01,29.89,11,2,13,0.12
2013-12-20,44,39,35,43,37,33,95,94,92,29.90,29.71,5,0,9,0.38
2013-12-21,46,35,32,45,33,31,95,94,93,29.85,29.63,14,3,16,0.68
2013-12-22,38,34,32,34,32,30,94,91,85,29.99,29.55,19,3,23,0.24
2013-12-23,32,26,16,30,22,10,91,84,76,30.36,29.99,14,5,20,0.00
2013-12-24,20,13,8,13,8,5,89,81,71,30.58,30.34,12,3,14,0.00
2013-12-25,24,20,11,22,16,8,90,86,82,30.54,30.14,8,2,18,0.00
2013-12-26,28,25,23,23,21,18,91,84,76,30.31,30.09,11,3,19,0.00
2013-12-27,40,34,28,32,29,23,85,81,72,30.34,30.12,7,2,13,0.08
2013-12-28,48,41,35,37,33,31,83,75,65,30.14,29.91,14,3,23,0.00
2013-12-29,41,34,20,33,28,15,90,79,70,30.04,29.71,15,4,19,0.00
2013-12-30,20,19,17,15,12,10,84,75,68,30.27,30.04,11,3,16,0.00
2013-12-31,17,15,13,14,10,8,86,83,73,30.38,30.12,12,4,17,0.00
2014-1-1,15,14,12,12,10,8,87,86,83,30.40,30.23,9,2,14,0.00
2014-1-2,14,11,2,11,7,-3,87,84,77,30.36,30.12,20,5,23,0.00